Tuesday, June 19, 2018, 8:00 PM GMT
Back to Local

CYVO, Val D'Or, Que.

Location: , , Canada Lat: 48.067
Local Time: 8:00 PM GMT (20:00 GMT) Lon: -77.783
Time Zone: GMT Elev: 1105 ft

Show me the last for .
Show Decoded

2018-06-19 19:00 METAR CYVO 191900Z 32006KT 240V340 15SM FEW030 20/07 A2999 RMK CF2 SLP163
                 DENSITY ALT 1900FT =
2018-06-19 18:00 METAR CYVO 191800Z VRB07KT 15SM FEW030 19/07 A3000 RMK CF1 SLP167 DENSITY ALT
                 1800FT =
2018-06-19 17:00 METAR CYVO 191700Z 33010KT 15SM FEW030 19/05 A3001 RMK CU1 CU TR SLP172 DENSITY
                 ALT 1700FT =
2018-06-19 16:00 METAR CYVO 191600Z 33010KT 250V020 15SM SKC 17/05 A3003 RMK SLP177 DENSITY ALT
                 1600FT =
2018-06-19 15:00 METAR CYVO 191500Z 34009G16KT 260V010 15SM FEW150 16/06 A3004 RMK AC1 AC TR
                 SLP181 DENSITY ALT 1400FT =
2018-06-19 14:00 METAR CYVO 191400Z 33011G18KT 15SM FEW270 14/06 A3004 RMK CI1 CI TR SLP182
                 DENSITY ALT 1200FT =
2018-06-19 13:00 METAR CYVO 191300Z 34009KT 270V360 15SM FEW020 FEW270 13/07 A3004 RMK CF1CI1 CF
                 TR CI TR SLP183 =
2018-06-19 12:00 METAR CYVO 191200Z 33011KT 15SM FEW020 FEW260 12/07 A3004 RMK CF1CI1 CF TR CI TR
                 SLP180 =
2018-06-19 11:00 METAR CYVO 191100Z 32006KT 15SM FEW250 11/08 A3002 RMK CI1 CI TR SLP176 =
2018-06-19 10:00 METAR CYVO 191000Z 28004KT 15SM FEW250 08/07 A3001 RMK CI1 CI TR SLP171 =
2018-06-19 09:00 METAR CYVO 190900Z AUTO 32007KT 9SM CLR 09/06 A2999 RMK SLP166 =
2018-06-19 08:00 METAR CYVO 190800Z AUTO 31007KT 9SM CLR 09/06 A2998 RMK SLP163 =
2018-06-19 07:00 METAR CYVO 190700Z AUTO 33007KT 9SM CLR 09/06 A2998 RMK SLP162 =
2018-06-19 06:00 METAR CYVO 190600Z AUTO 33009KT 9SM CLR 10/06 A2998 RMK SLP163 =
2018-06-19 05:00 METAR CYVO 190500Z AUTO 34008KT 9SM CLR 10/06 A2998 RMK SLP161 =
2018-06-19 04:00 METAR CYVO 190400Z AUTO 34013G19KT 9SM CLR 11/06 A2997 RMK SLP158 =
2018-06-19 03:00 METAR CYVO 190300Z AUTO 35016G21KT 9SM OVC026 12/07 A2996 RMK SLP153 =
2018-06-19 02:00 METAR CYVO 190200Z 34015G27KT 15SM BKN026 12/08 A2993 RMK SC6 LAST STFD OBS/NEXT
                 191000UTC PRESRR SLP142 =
2018-06-19 01:00 METAR CYVO 190100Z 34013G22KT 15SM FEW024TCU FEW040 15/10 A2988 RMK TCU1SC1 TCU
                 TR TCU SE-SW SLP124 DENSITY ALT 1400FT =
2018-06-19 00:00 METAR CYVO 190000Z 34018G24KT 15SM FEW033TCU 17/10 A2984 RMK TCU1 PRESRR SLP109
                 DENSITY ALT 1800FT =
2018-06-18 23:27 METAR CYVO 182327Z 36020G26KT 300V010 15SM VCSH FEW033TCU SCT070 19/13 A2981 RMK
                 TCU2AC1 WSHFT 2313 SLP098 DENSITY ALT 2000FT =
2018-06-18 23:00 METAR CYVO 182300Z CCA 31008G15KT 15SM VCSH FEW038TCU SCT060 BKN075 19/15 A2980
                 RMK TCU1CU2AC3 SLP095 DENSITY ALT 2000FT =
2018-06-18 22:00 METAR CYVO 182200Z 30007G15KT 260V330 15SM FEW025TCU BKN070 19/14 A2978 RMK
                 TCU1AC5 TCU NW-NE SLP090 DENSITY ALT 2100FT =
2018-06-18 21:00 METAR CYVO 182100Z 30008KT 260V340 15SM FEW035TCU BKN120 BKN260 20/14 A2977 RMK
                 TCU1AC6CC1 CC TR TCU N MOVG E SLP086 DENSITY ALT 2100FT =

Support USWX by starting your Amazon purchase here.